Time;durP1;ratioP1;P1;durP2;ratioP2;P2;SDS_P1;SDS_P2;PMS_P1;PMS_P2;Temp;Humidity;BMP_temperature;BMP_pressure;BME280_temperature;BME280_humidity;BME280_pressure;Samples;Min_cycle;Max_cycle;Signal;HPM_P1;HPM_P2
2021/06/28 00:01:13;;;;;;;11.20;10.05;;;;;;;17.37;100.00;101303.31;5233725;28;20075;-64
2021/06/28 00:03:45;;;;;;;11.43;10.23;;;;;;;17.30;100.00;101301.47;5234191;28;20111;-64
2021/06/28 00:06:16;;;;;;;11.80;10.70;;;;;;;17.28;100.00;101299.00;5234126;28;20025;-64
2021/06/28 00:08:48;;;;;;;12.30;11.10;;;;;;;17.32;100.00;101294.22;5232193;28;20701;-64
2021/06/28 00:11:19;;;;;;;12.88;11.50;;;;;;;17.27;100.00;101289.38;5233949;28;20245;-64
2021/06/28 00:13:53;;;;;;;14.00;11.07;;;;;;;17.30;100.00;101291.69;5234211;28;20112;-64
2021/06/28 00:16:25;;;;;;;12.30;11.10;;;;;;;17.24;100.00;101297.66;5233024;28;20048;-64
2021/06/28 00:18:57;;;;;;;12.50;11.30;;;;;;;17.24;100.00;101297.66;5234067;28;20029;-64
2021/06/28 00:21:30;;;;;;;13.32;11.35;;;;;;;17.25;100.00;101294.84;5234246;28;20032;-64
2021/06/28 00:24:01;;;;;;;12.55;11.45;;;;;;;17.26;100.00;101283.25;5233294;28;20072;-64
2021/06/28 00:26:34;;;;;;;13.80;12.47;;;;;;;17.25;100.00;101286.06;5233094;28;20108;-64
2021/06/28 00:29:05;;;;;;;13.00;11.23;;;;;;;17.19;100.00;101284.06;5233669;28;20072;-64
2021/06/28 00:31:38;;;;;;;15.20;13.90;;;;;;;17.19;100.00;101278.78;5234377;28;20470;-64
2021/06/28 00:34:09;;;;;;;14.40;13.05;;;;;;;17.18;100.00;101269.19;5232875;28;20057;-64
2021/06/28 00:36:41;;;;;;;15.55;14.18;;;;;;;17.22;100.00;101267.88;5231305;28;20060;-64
2021/06/28 00:39:12;;;;;;;16.38;13.75;;;;;;;17.20;100.00;101262.75;5234175;28;20028;-64
2021/06/28 00:41:43;;;;;;;17.53;15.83;;;;;;;17.22;100.00;101258.09;5233450;28;20057;-64
2021/06/28 00:44:15;;;;;;;17.75;15.82;;;;;;;17.21;100.00;101260.91;5233311;28;20041;-64
2021/06/28 00:46:47;;;;;;;16.53;15.03;;;;;;;17.19;100.00;101258.41;5233441;28;20025;-64
2021/06/28 00:49:18;;;;;;;17.42;15.77;;;;;;;17.24;100.00;101261.41;5231053;28;20057;-64
2021/06/28 00:51:49;;;;;;;16.48;14.93;;;;;;;17.25;100.00;101262.25;5232796;28;20091;-64
2021/06/28 00:54:21;;;;;;;16.75;15.05;;;;;;;17.23;100.00;101265.03;5233265;28;20390;-64
2021/06/28 00:56:53;;;;;;;17.37;15.77;;;;;;;17.22;100.00;101258.09;5233882;28;20021;-64
2021/06/28 00:59:24;;;;;;;17.13;15.52;;;;;;;17.21;100.00;101255.63;5232640;28;20486;-64
2021/06/28 01:01:56;;;;;;;15.82;14.25;;;;;;;17.23;100.00;101251.78;5233123;28;20026;-64
2021/06/28 01:04:29;;;;;;;16.15;14.70;;;;;;;17.20;100.00;101248.69;5227771;28;20093;-64
2021/06/28 01:07:00;;;;;;;16.33;14.90;;;;;;;17.20;100.00;101248.69;5233039;28;20029;-64
2021/06/28 01:09:32;;;;;;;16.38;14.98;;;;;;;17.18;100.00;101237.41;5233212;28;20048;-64
2021/06/28 01:12:05;;;;;;;16.52;15.07;;;;;;;17.19;100.00;101239.06;5232452;28;20106;-64
2021/06/28 01:14:37;;;;;;;15.75;14.13;;;;;;;17.25;100.00;101251.66;5232625;28;20494;-65
2021/06/28 01:17:08;;;;;;;14.90;13.40;;;;;;;17.20;100.00;101254.78;5231204;28;20140;-64
2021/06/28 01:19:48;;;;;;;14.93;13.53;;;;;;;17.21;100.00;101253.78;5232440;28;20090;-64
2021/06/28 01:22:24;;;;;;;16.17;14.77;;;;;;;17.17;100.00;101262.25;5232622;28;20025;-64
2021/06/28 01:24:57;;;;;;;15.45;14.05;;;;;;;17.16;100.00;101263.22;5233175;28;20112;-63
2021/06/28 01:27:30;;;;;;;15.90;14.40;;;;;;;17.15;100.00;101270.31;5232992;28;20037;-64
2021/06/28 01:30:04;;;;;;;16.13;14.63;;;;;;;17.15;100.00;101267.69;5233393;28;20022;-66
2021/06/28 01:32:36;;;;;;;16.40;14.85;;;;;;;17.10;100.00;101287.69;5231080;28;20037;-64
2021/06/28 01:35:09;;;;;;;16.83;15.23;;;;;;;17.17;100.00;101294.84;5233120;28;20033;-64
2021/06/28 01:37:42;;;;;;;15.77;14.23;;;;;;;17.10;100.00;101293.00;5233465;28;20390;-64
2021/06/28 01:40:15;;;;;;;15.48;14.02;;;;;;;17.10;100.00;101293.00;5231870;28;20025;-64
2021/06/28 01:42:47;;;;;;;16.50;13.80;;;;;;;17.10;100.00;101296.47;5232751;28;20542;-64
2021/06/28 01:45:21;;;;;;;15.20;13.70;;;;;;;17.09;100.00;101294.00;5232800;28;20021;-64
2021/06/28 01:47:57;;;;;;;15.73;14.32;;;;;;;17.07;100.00;101304.72;5232028;28;20529;-64
2021/06/28 01:50:31;;;;;;;15.95;14.38;;;;;;;17.04;100.00;101294.47;5230787;28;20113;-64
2021/06/28 01:53:04;;;;;;;15.27;13.65;;;;;;;17.01;100.00;101282.41;5232262;28;20044;-64
2021/06/28 01:55:36;;;;;;;;;;;;;;;17.30;100.00;101269.69;5233536;28;20038;-64
2021/06/28 01:58:11;;;;;;;15.00;13.60;;;;;;;16.92;100.00;101266.63;5232081;28;19970;-64
2021/06/28 02:00:52;;;;;;;16.17;14.52;;;;;;;17.08;100.00;101279.06;5230663;28;20041;-64
2021/06/28 02:03:25;;;;;;;15.82;13.77;;;;;;;17.00;100.00;101285.19;5232580;28;20117;-64
2021/06/28 02:05:57;;;;;;;;;;;;;;;17.26;100.00;101277.97;5231930;28;20087;-64
2021/06/28 02:08:32;;;;;;;15.10;13.70;;;;;;;16.98;100.00;101295.13;5231700;28;19922;-64
2021/06/28 02:11:06;;;;;;;16.30;14.63;;;;;;;16.94;100.00;101293.78;5232566;28;20060;-64
2021/06/28 02:13:37;;;;;;;16.92;15.30;;;;;;;16.94;100.00;101293.78;5233882;28;20053;-64
2021/06/28 02:16:08;;;;;;;16.85;15.25;;;;;;;16.93;100.00;101281.53;5236733;28;20131;-64
2021/06/28 02:18:40;;;;;;;16.75;15.05;;;;;;;16.91;100.00;101280.88;5236876;28;20017;-64
2021/06/28 02:21:12;;;;;;;16.73;15.20;;;;;;;16.89;100.00;101272.25;5229794;28;20037;-64
2021/06/28 02:23:43;;;;;;;15.43;14.02;;;;;;;16.90;100.00;101282.69;5235409;28;20021;-64
2021/06/28 02:26:14;;;;;;;15.85;14.05;;;;;;;16.88;100.00;101292.59;5234317;28;20037;-63
2021/06/28 02:28:48;;;;;;;16.83;15.07;;;;;;;16.80;100.00;101289.91;5233334;28;20482;-64
2021/06/28 02:31:21;;;;;;;15.88;14.27;;;;;;;16.80;100.00;101294.38;5232842;28;20017;-64
2021/06/28 02:33:54;;;;;;;15.50;14.10;;;;;;;16.72;100.00;101297.81;5234736;28;20029;-64
2021/06/28 02:36:27;;;;;;;15.80;14.32;;;;;;;16.72;100.00;101290.69;5233012;28;20044;-64
2021/06/28 02:38:59;;;;;;;15.45;14.05;;;;;;;16.73;100.00;101294.16;5236297;28;20029;-64
2021/06/28 02:41:30;;;;;;;15.80;14.20;;;;;;;16.71;100.00;101290.84;5235663;28;20382;-64
2021/06/28 02:44:03;;;;;;;15.43;13.90;;;;;;;16.67;100.00;101287.69;5235169;28;20573;-64
2021/06/28 02:46:34;;;;;;;15.10;13.77;;;;;;;16.59;100.00;101292.09;5235949;28;20032;-64
2021/06/28 02:49:06;;;;;;;15.55;14.02;;;;;;;16.58;100.00;101296.56;5234996;28;20037;-64
2021/06/28 02:51:37;;;;;;;15.82;14.15;;;;;;;16.56;100.00;101287.97;5234534;28;20033;-64
2021/06/28 02:54:08;;;;;;;16.27;14.73;;;;;;;16.58;100.00;101291.28;5235721;28;20036;-64
2021/06/28 02:56:39;;;;;;;17.05;15.38;;;;;;;16.53;100.00;101281.19;5235045;28;20047;-64
2021/06/28 02:59:12;;;;;;;15.40;14.00;;;;;;;16.51;100.00;101288.44;5235415;28;20028;-64
2021/06/28 03:01:44;;;;;;;15.13;13.82;;;;;;;16.42;100.00;101283.28;5234593;28;20493;-64
2021/06/28 03:04:15;;;;;;;16.25;14.77;;;;;;;16.44;100.00;101276.84;5233901;28;20045;-64
2021/06/28 03:06:47;;;;;;;16.77;15.20;;;;;;;16.48;100.00;101269.44;5234912;28;20033;-64
2021/06/28 03:09:18;;;;;;;16.85;15.18;;;;;;;16.42;100.00;101278.81;5235078;28;20017;-64
2021/06/28 03:11:49;;;;;;;15.40;14.10;;;;;;;16.41;100.00;101269.22;5235142;28;20084;-64
2021/06/28 03:14:21;;;;;;;15.55;14.15;;;;;;;16.41;100.00;101271.06;5234879;28;20032;-64
2021/06/28 03:16:52;;;;;;;16.23;14.55;;;;;;;16.34;100.00;101273.50;5233728;28;20045;-64
2021/06/28 03:19:24;;;;;;;15.65;14.18;;;;;;;16.38;100.00;101269.53;5234341;28;20029;-64
2021/06/28 03:21:55;;;;;;;15.02;13.60;;;;;;;16.32;100.00;101278.09;5234814;28;20084;-64
2021/06/28 03:24:26;;;;;;;15.65;14.25;;;;;;;16.35;100.00;101269.03;5234733;28;20028;-64
2021/06/28 03:26:57;;;;;;;16.42;14.90;;;;;;;16.29;100.00;101270.50;5234622;28;20083;-64
2021/06/28 03:29:29;;;;;;;16.08;14.50;;;;;;;16.31;100.00;101268.50;5234439;28;20487;-64
2021/06/28 03:32:00;;;;;;;16.90;15.35;;;;;;;16.30;100.00;101272.97;5234578;28;20029;-64
2021/06/28 03:34:32;;;;;;;17.75;16.00;;;;;;;16.33;100.00;101270.97;5235625;28;20025;-64
2021/06/28 03:37:03;;;;;;;18.25;16.52;;;;;;;16.30;100.00;101272.16;5233786;28;20029;-64
2021/06/28 03:39:34;;;;;;;16.17;14.73;;;;;;;16.27;100.00;101283.03;5234289;28;20508;-64
2021/06/28 03:42:06;;;;;;;16.02;14.52;;;;;;;16.23;100.00;101276.41;5234004;28;20363;-64
2021/06/28 03:44:38;;;;;;;17.20;15.63;;;;;;;16.25;100.00;101262.03;5234501;28;20117;-64
2021/06/28 03:47:09;;;;;;;17.40;15.77;;;;;;;16.29;100.00;101266.03;5233341;28;20143;-64
2021/06/28 03:49:40;;;;;;;17.77;15.57;;;;;;;16.25;100.00;101271.75;5234369;28;20063;-64
2021/06/28 03:52:11;;;;;;;17.38;15.70;;;;;;;16.25;100.00;101269.13;5235010;28;20120;-64
2021/06/28 03:54:43;;;;;;;16.85;15.25;;;;;;;16.22;100.00;101272.94;5232355;28;20036;-64
2021/06/28 03:57:14;;;;;;;16.25;14.75;;;;;;;16.21;100.00;101281.84;5234245;28;20025;-63
2021/06/28 03:59:45;;;;;;;17.33;15.60;;;;;;;16.21;100.00;101284.50;5233328;28;20033;-64
2021/06/28 04:02:17;;;;;;;18.05;16.25;;;;;;;16.21;100.00;101287.13;5227464;28;20079;-64
2021/06/28 04:04:48;;;;;;;17.70;16.08;;;;;;;16.21;100.00;101279.22;5232910;28;20032;-64
2021/06/28 04:07:20;;;;;;;17.33;15.73;;;;;;;16.29;100.00;101270.50;5232179;28;20086;-64
2021/06/28 04:09:51;;;;;;;19.80;17.20;;;;;;;16.30;100.00;101274.78;5230815;28;20052;-64
2021/06/28 04:12:22;;;;;;;17.98;16.30;;;;;;;16.36;100.00;101268.03;5233120;28;20528;-64
2021/06/28 04:14:54;;;;;;;19.85;17.90;;;;;;;16.39;100.00;101270.38;5232857;28;20490;-64
2021/06/28 04:17:25;;;;;;;18.70;16.80;;;;;;;16.42;100.00;101270.88;5232939;28;20049;-64
2021/06/28 04:19:57;;;;;;;19.08;17.15;;;;;;;16.47;100.00;101265.09;5233205;28;20267;-65
2021/06/28 04:22:28;;;;;;;19.05;17.33;;;;;;;16.56;100.00;101272.13;5232634;28;20088;-64
2021/06/28 04:24:59;;;;;;;19.20;17.40;;;;;;;16.62;100.00;101268.00;5233006;28;20029;-64
2021/06/28 04:27:31;;;;;;;19.00;17.23;;;;;;;16.69;100.00;101266.38;5234056;28;20402;-64
2021/06/28 04:30:05;;;;;;;20.83;18.73;;;;;;;16.75;100.00;101260.47;5232951;28;20496;-64
2021/06/28 04:32:37;;;;;;;22.05;19.67;;;;;;;16.81;100.00;101267.75;5234015;28;20470;-64
2021/06/28 04:35:12;;;;;;;20.77;18.88;;;;;;;16.88;100.00;101262.66;5232869;28;20043;-64
2021/06/28 04:37:45;;;;;;;20.92;18.88;;;;;;;16.90;100.00;101260.69;5247950;28;20521;-64
2021/06/28 04:40:19;;;;;;;22.20;20.10;;;;;;;16.96;100.00;101268.78;5233649;28;20033;-65
2021/06/28 04:42:50;;;;;;;21.88;19.67;;;;;;;17.02;100.00;101273.44;5233258;28;20947;-64
2021/06/28 04:45:23;;;;;;;22.92;20.55;;;;;;;17.09;100.00;101272.81;5231439;28;20033;-65
2021/06/28 04:47:55;;;;;;;22.45;20.17;;;;;;;17.13;100.00;101277.63;5233648;28;20119;-65
2021/06/28 04:50:27;;;;;;;22.70;20.58;;;;;;;17.20;100.00;101275.16;5233600;28;20030;-64
2021/06/28 04:52:58;;;;;;;23.10;20.63;;;;;;;17.20;100.00;101272.50;5232794;28;20063;-65
2021/06/28 04:55:29;;;;;;;22.02;19.83;;;;;;;17.24;100.00;101271.19;5232047;28;20034;-65
2021/06/28 04:58:01;;;;;;;21.55;19.48;;;;;;;17.25;100.00;101270.19;5233612;28;20532;-65
2021/06/28 05:00:32;;;;;;;23.02;20.85;;;;;;;17.24;100.00;101272.00;5234108;28;20405;-65
2021/06/28 05:03:04;;;;;;;22.00;19.95;;;;;;;17.24;100.00;101268.53;5232756;28;20467;-64
2021/06/28 05:05:35;;;;;;;23.13;20.98;;;;;;;17.23;100.00;101269.50;5232654;28;20505;-64
2021/06/28 05:08:06;;;;;;;22.10;20.08;;;;;;;17.29;100.00;101260.94;5233085;28;20029;-64
2021/06/28 05:10:37;;;;;;;22.95;20.83;;;;;;;17.29;100.00;101260.09;5233338;28;20474;-64
2021/06/28 05:13:09;;;;;;;23.33;21.23;;;;;;;17.29;100.00;101254.81;5231412;28;20044;-65
2021/06/28 05:15:40;;;;;;;23.83;21.60;;;;;;;17.31;100.00;101261.56;5232167;28;20063;-66
2021/06/28 05:18:12;;;;;;;22.75;20.58;;;;;;;17.37;100.00;101266.22;5231509;28;20033;-65
2021/06/28 05:20:43;;;;;;;22.60;20.40;;;;;;;17.38;100.00;101264.41;5232474;28;20106;-65
2021/06/28 05:23:14;;;;;;;21.77;19.87;;;;;;;17.44;100.00;101267.22;5232967;28;20297;-65
2021/06/28 05:25:49;;;;;;;22.50;20.40;;;;;;;17.46;100.00;101273.19;5232581;28;20096;-65
2021/06/28 05:28:21;;;;;;;23.40;21.10;;;;;;;17.49;100.00;101277.31;5232649;28;20509;-65
2021/06/28 05:30:52;;;;;;;23.92;21.40;;;;;;;17.53;100.00;101270.69;5232537;28;20021;-65
2021/06/28 05:33:23;;;;;;;23.57;21.27;;;;;;;17.54;100.00;101261.78;5232921;28;20034;-65
2021/06/28 05:35:55;;;;;;;24.80;22.20;;;;;;;17.58;100.00;101265.75;5232438;28;20017;-67
2021/06/28 05:38:26;;;;;;;23.48;21.17;;;;;;;17.67;100.00;101267.41;5231232;28;20040;-65
2021/06/28 05:40:58;;;;;;;24.60;21.90;;;;;;;17.72;100.00;101259.75;5232257;28;20029;-65
2021/06/28 05:43:29;;;;;;;23.25;21.08;;;;;;;17.81;100.00;101270.41;5233271;28;20037;-65
2021/06/28 05:46:01;;;;;;;24.42;21.92;;;;;;;17.83;100.00;101260.47;5231563;28;20500;-65
2021/06/28 05:48:32;;;;;;;24.77;22.15;;;;;;;17.91;100.00;101263.09;5234908;28;20035;-65
2021/06/28 05:51:03;;;;;;;25.60;23.13;;;;;;;17.98;100.00;101258.78;5236633;28;20485;-65
2021/06/28 05:53:35;;;;;;;24.67;22.17;;;;;;;18.03;100.00;101253.78;5237016;28;20443;-65
2021/06/28 05:56:07;;;;;;;24.05;21.55;;;;;;;18.12;100.00;101252.78;5235493;28;20505;-65
2021/06/28 05:58:38;;;;;;;26.17;23.30;;;;;;;18.15;100.00;101244.50;5234768;28;20218;-66
2021/06/28 06:01:10;;;;;;;26.40;23.00;;;;;;;18.21;100.00;101243.81;5236015;28;20029;-65
2021/06/28 06:03:42;;;;;;;24.87;22.53;;;;;;;18.33;100.00;101246.91;5235899;28;20068;-65
2021/06/28 06:06:13;;;;;;;27.20;24.05;;;;;;;18.43;100.00;101252.03;5234877;28;20135;-66
2021/06/28 06:08:44;;;;;;;24.83;22.33;;;;;;;18.48;100.00;101247.03;5234238;28;20029;-65
2021/06/28 06:11:16;;;;;;;27.30;24.45;;;;;;;18.59;100.00;101245.81;5232592;28;20546;-65
2021/06/28 06:13:47;;;;;;;27.43;24.80;;;;;;;18.58;100.00;101247.66;5235143;28;20033;-65
2021/06/28 06:16:18;;;;;;;24.90;22.55;;;;;;;18.74;100.00;101240.66;5234289;28;20521;-65
2021/06/28 06:18:52;;;;;;;25.87;23.33;;;;;;;18.80;100.00;101239.97;5236378;28;20037;-65
2021/06/28 06:21:24;;;;;;;27.00;24.38;;;;;;;18.90;100.00;101241.41;5222770;28;20113;-66
2021/06/28 06:23:55;;;;;;;26.02;23.33;;;;;;;19.03;100.00;101224.06;5231981;28;20036;-65
2021/06/28 06:26:26;;;;;;;25.13;22.67;;;;;;;19.05;100.00;101227.34;5235760;28;20674;-65
2021/06/28 06:28:58;;;;;;;25.47;22.90;;;;;;;19.15;100.00;101220.81;5234414;28;20140;-65
2021/06/28 06:31:29;;;;;;;26.60;24.10;;;;;;;19.27;100.00;101223.06;5235024;28;20029;-65
2021/06/28 06:34:00;;;;;;;26.37;23.77;;;;;;;19.40;100.00;101221.47;5231477;28;20029;-67
2021/06/28 06:36:32;;;;;;;24.20;21.90;;;;;;;19.49;100.00;101226.69;5219143;28;20128;-65
2021/06/28 06:39:03;;;;;;;22.97;20.97;;;;;;;19.56;100.00;101233.78;5232507;28;20485;-65
2021/06/28 06:41:35;;;;;;;24.67;22.20;;;;;;;19.59;100.00;101224.63;5231657;28;20057;-65
2021/06/28 06:44:06;;;;;;;22.83;20.63;;;;;;;19.74;100.00;101233.47;5234930;28;20029;-65
2021/06/28 06:46:38;;;;;;;24.03;21.73;;;;;;;19.84;100.00;101235.88;5232532;28;20033;-65
2021/06/28 06:49:09;;;;;;;23.63;21.50;;;;;;;19.91;100.00;101239.44;5234697;28;20486;-65
2021/06/28 06:51:41;;;;;;;23.20;20.90;;;;;;;19.98;100.00;101247.53;5230269;28;20500;-65
2021/06/28 06:54:12;;;;;;;24.03;21.53;;;;;;;20.05;100.00;101248.47;5232519;28;20370;-65
2021/06/28 06:56:43;;;;;;;23.33;21.00;;;;;;;20.12;100.00;101257.38;5232806;28;20036;-65
2021/06/28 06:59:15;;;;;;;22.00;19.77;;;;;;;20.21;100.00;101255.44;5232635;28;20391;-66
2021/06/28 07:01:46;;;;;;;22.87;20.50;;;;;;;20.36;100.00;101245.63;5233080;28;20033;-66
2021/06/28 07:04:18;;;;;;;22.83;20.63;;;;;;;20.39;100.00;101237.28;5231993;28;20108;-66
2021/06/28 07:06:49;;;;;;;22.83;20.67;;;;;;;20.42;100.00;101250.22;5229284;28;20027;-66
2021/06/28 07:09:21;;;;;;;22.47;20.33;;;;;;;20.52;100.00;101244.63;5234540;28;20386;-65
2021/06/28 07:11:52;;;;;;;21.30;19.40;;;;;;;20.56;99.40;101251.22;5229584;28;20083;-65
2021/06/28 07:14:24;;;;;;;22.67;20.57;;;;;;;20.61;99.81;101256.84;5231687;28;20514;-65
2021/06/28 07:16:56;;;;;;;22.45;20.35;;;;;;;20.75;99.89;101266.59;5232430;28;20045;-65
2021/06/28 07:19:27;;;;;;;22.07;19.97;;;;;;;20.84;98.17;101273.50;5233604;28;20032;-65
2021/06/28 07:21:58;;;;;;;21.33;19.27;;;;;;;20.97;97.50;101270.16;5229227;28;20021;-65
2021/06/28 07:24:30;;;;;;;21.07;18.70;;;;;;;21.13;95.14;101280.56;5233526;28;20475;-65
2021/06/28 07:27:01;;;;;;;20.60;18.80;;;;;;;21.23;96.86;101284.78;5233836;28;20029;-65
2021/06/28 07:29:32;;;;;;;20.73;18.83;;;;;;;21.29;94.25;101289.31;5233370;28;20099;-65
2021/06/28 07:32:04;;;;;;;21.03;19.07;;;;;;;21.35;94.99;101296.59;5232257;28;20028;-65
2021/06/28 07:34:36;;;;;;;20.23;18.43;;;;;;;21.49;96.38;101284.25;5229377;28;20049;-65
2021/06/28 07:37:07;;;;;;;20.80;18.83;;;;;;;21.64;93.32;101289.50;5230192;28;20741;-65
2021/06/28 07:39:38;;;;;;;19.93;18.00;;;;;;;21.75;93.85;101287.13;5232947;28;20584;-65
2021/06/28 07:42:10;;;;;;;21.73;19.57;;;;;;;21.83;92.94;101278.16;5232433;28;20055;-65
2021/06/28 07:44:41;;;;;;;20.10;18.10;;;;;;;21.99;92.47;101269.84;5233478;28;20025;-65
2021/06/28 07:47:12;;;;;;;20.57;18.70;;;;;;;22.08;90.79;101274.00;5232730;28;20033;-65
2021/06/28 07:49:44;;;;;;;20.33;18.23;;;;;;;22.22;91.32;101279.47;5232192;28;20032;-65
2021/06/28 07:52:15;;;;;;;20.10;17.97;;;;;;;22.34;91.51;101276.06;5232130;28;20033;-65
2021/06/28 07:54:47;;;;;;;20.13;18.23;;;;;;;22.24;91.76;101266.78;5233284;28;20140;-65
2021/06/28 07:57:19;;;;;;;19.77;17.70;;;;;;;22.25;93.36;101266.56;5230893;28;20031;-65
2021/06/28 07:59:50;;;;;;;19.43;17.33;;;;;;;22.29;92.86;101261.66;5231944;28;20034;-65
2021/06/28 08:02:21;;;;;;;18.63;16.77;;;;;;;22.46;91.99;101256.81;5232191;28;20522;-66
2021/06/28 08:04:53;;;;;;;19.87;18.03;;;;;;;22.44;91.02;101246.34;5231484;28;20045;-65
2021/06/28 08:07:24;;;;;;;20.47;18.63;;;;;;;22.41;92.59;101246.72;5230947;28;20022;-65
2021/06/28 08:09:55;;;;;;;18.63;16.93;;;;;;;22.59;90.54;101254.22;5231744;28;20138;-65
2021/06/28 08:12:27;;;;;;;17.50;15.83;;;;;;;22.91;89.53;101252.69;5230083;28;20029;-65
2021/06/28 08:14:59;;;;;;;19.93;18.03;;;;;;;23.05;86.84;101256.22;5231988;28;20052;-65
2021/06/28 08:17:30;;;;;;;29.07;17.63;;;;;;;23.13;86.91;101255.22;5231807;28;20052;-66
2021/06/28 08:20:02;;;;;;;18.90;17.10;;;;;;;23.17;88.93;101251.94;5231670;28;20040;-66
2021/06/28 08:22:35;;;;;;;19.13;17.23;;;;;;;23.03;87.88;101251.09;5227141;28;20025;-66
2021/06/28 08:25:08;;;;;;;19.23;17.30;;;;;;;23.03;87.86;101263.59;5232867;28;20041;-66
2021/06/28 08:27:39;;;;;;;19.35;17.50;;;;;;;;;;5231603;28;20033;-65
2021/06/28 08:30:12;;;;;;;18.93;16.70;;;;;;;23.11;85.78;101262.59;5227020;28;20309;-65
2021/06/28 08:32:44;;;;;;;19.05;17.05;;;;;;;23.16;85.97;101265.50;5230574;28;20025;-66
2021/06/28 08:35:15;;;;;;;18.33;16.60;;;;;;;23.18;85.65;101255.41;5229797;28;20103;-66
2021/06/28 08:37:46;;;;;;;18.37;16.53;;;;;;;23.28;86.24;101248.66;5226653;28;20064;-66
2021/06/28 08:40:18;;;;;;;18.87;17.07;;;;;;;23.24;84.66;101257.28;5230558;28;20026;-65
2021/06/28 08:42:49;;;;;;;18.97;17.17;;;;;;;23.24;87.37;101260.78;5229966;28;20025;-65
2021/06/28 08:45:22;;;;;;;18.00;16.23;;;;;;;23.44;86.64;101260.78;5230083;28;20045;-65
2021/06/28 08:47:54;;;;;;;18.23;16.42;;;;;;;23.36;87.82;101273.56;5231513;28;20332;-65
2021/06/28 08:50:25;;;;;;;19.20;17.30;;;;;;;23.47;84.52;101267.59;5232523;28;20445;-65
2021/06/28 08:52:57;;;;;;;18.40;16.77;;;;;;;23.44;83.70;101278.69;5231173;28;20267;-65
2021/06/28 08:55:29;;;;;;;17.43;15.80;;;;;;;23.54;85.00;101274.59;5230403;28;20147;-65
2021/06/28 08:58:04;;;;;;;17.30;15.53;;;;;;;23.50;85.84;101280.56;5230478;28;20033;-65
2021/06/28 09:00:35;;;;;;;17.67;15.93;;;;;;;23.47;86.00;101276.44;5231562;28;20181;-65
2021/06/28 09:03:09;;;;;;;17.60;15.80;;;;;;;23.51;85.23;101275.00;5232212;28;20152;-65
2021/06/28 09:06:03;;;;;;;17.33;15.63;;;;;;;23.70;87.32;101277.91;5230220;28;20108;-65
2021/06/28 09:08:35;;;;;;;17.13;15.52;;;;;;;23.57;86.94;101276.03;5230754;28;20116;-65
2021/06/28 09:11:16;;;;;;;16.03;14.43;;;;;;;23.65;86.34;101275.00;5230136;28;20558;-65
2021/06/28 09:13:49;;;;;;;19.20;14.55;;;;;;;23.57;84.83;101285.94;5222640;28;20040;-66
2021/06/28 09:16:26;;;;;;;18.13;14.80;;;;;;;23.54;87.33;101279.94;5229436;28;20049;-66
2021/06/28 09:19:06;;;;;;;15.60;14.10;;;;;;;23.60;85.33;101278.31;5230946;28;20112;-66
2021/06/28 09:21:42;;;;;;;14.25;12.88;;;;;;;23.52;85.89;101275.81;5230027;28;20033;-65
2021/06/28 09:24:36;;;;;;;15.18;13.77;;;;;;;23.71;85.11;101279.56;5235462;28;20028;-65
2021/06/28 09:27:11;;;;;;;15.88;14.15;;;;;;;23.55;86.87;101278.09;5234931;28;20339;-66
2021/06/28 09:29:46;;;;;;;16.67;14.95;;;;;;;23.66;86.78;101288.22;5233032;28;20044;-65
2021/06/28 09:32:19;;;;;;;15.60;14.10;;;;;;;23.63;87.00;101290.44;5233771;28;20022;-65
2021/06/28 09:34:55;;;;;;;13.73;12.38;;;;;;;23.59;84.74;101286.53;5234179;28;20300;-66
2021/06/28 09:37:27;;;;;;;13.05;11.75;;;;;;;23.53;84.45;101305.06;5231315;28;20088;-66
2021/06/28 09:39:59;;;;;;;11.10;10.00;;;;;;;23.43;83.75;101301.13;5233785;28;20124;-65
2021/06/28 09:42:31;;;;;;;11.70;10.60;;;;;;;23.43;83.30;101307.28;5234250;28;20430;-66
2021/06/28 09:45:09;;;;;;;12.60;11.40;;;;;;;23.38;84.04;101300.91;5234189;28;20033;-65
2021/06/28 09:47:40;;;;;;;10.88;9.77;;;;;;;23.36;85.44;101308.31;5231779;28;20033;-65
2021/06/28 09:50:15;;;;;;;12.57;9.90;;;;;;;23.38;83.34;101309.75;5234269;28;20021;-65
2021/06/28 09:52:51;;;;;;;11.65;10.55;;;;;;;23.39;83.86;101297.22;5233798;28;20060;-66
2021/06/28 09:55:26;;;;;;;12.00;10.80;;;;;;;23.57;84.83;101307.31;5232996;28;20402;-65
2021/06/28 09:58:09;;;;;;;12.55;10.60;;;;;;;23.66;85.38;101306.06;5235235;28;20083;-66
2021/06/28 10:00:46;;;;;;;12.57;9.98;;;;;;;23.72;84.06;101300.78;5235500;28;20030;-66
2021/06/28 10:03:46;;;;;;;12.25;11.05;;;;;;;23.82;84.16;101297.66;5233969;28;20393;-65
2021/06/28 10:09:07;;;;;;;13.80;12.50;;;;;;;23.91;84.31;101301.78;5233116;28;20095;-66
2021/06/28 10:11:45;;;;;;;13.25;11.98;;;;;;;23.87;84.44;101310.44;5235076;28;20033;-66
2021/06/28 10:14:16;;;;;;;14.88;13.43;;;;;;;23.76;85.35;101318.06;5234897;28;21316;-66
2021/06/28 10:16:48;;;;;;;16.03;14.27;;;;;;;23.70;84.77;101316.19;5249911;22;20061;-69
2021/06/28 10:19:19;;;;;;;15.90;14.43;;;;;;;23.58;85.85;101323.16;5227458;28;20370;-69
2021/06/28 10:21:52;;;;;;;16.73;15.03;;;;;;;23.54;84.85;101319.25;5230073;28;20022;-69
2021/06/28 10:24:24;;;;;;;18.52;16.73;;;;;;;23.39;86.37;101314.06;5234764;28;20029;-69
2021/06/28 10:26:56;;;;;;;17.87;16.03;;;;;;;23.32;88.23;101313.25;5233996;28;20025;-68
2021/06/28 10:29:28;;;;;;;17.40;15.90;;;;;;;23.37;87.38;101323.31;5234382;28;20327;-69
2021/06/28 10:32:08;;;;;;;17.95;16.25;;;;;;;23.33;88.36;101317.53;5233663;28;20021;-68
2021/06/28 10:34:40;;;;;;;18.75;17.13;;;;;;;23.17;89.29;101328.63;5232973;28;20025;-69
2021/06/28 10:37:30;;;;;;;19.90;17.85;;;;;;;23.30;88.26;101318.78;5230912;28;20029;-69
2021/06/28 10:40:10;;;;;;;19.15;17.38;;;;;;;23.17;89.60;101323.28;5233772;28;20083;-68
2021/06/28 10:42:45;;;;;;;17.60;15.98;;;;;;;23.09;88.96;101324.28;5233584;28;20033;-68
2021/06/28 10:45:37;;;;;;;17.92;16.23;;;;;;;23.17;88.73;101320.59;5233453;28;20379;-69
2021/06/28 10:48:17;;;;;;;18.20;16.50;;;;;;;23.08;89.76;101329.84;5233221;28;20032;-68
2021/06/28 10:50:59;;;;;;;18.58;16.77;;;;;;;23.05;90.49;101326.53;5233087;28;20586;-69
2021/06/28 10:53:33;;;;;;;19.15;17.30;;;;;;;22.99;90.70;101321.97;5225582;28;20997;-69
2021/06/28 10:56:26;;;;;;;19.25;17.27;;;;;;;22.92;92.24;101318.50;5229010;28;20061;-69
2021/06/28 10:58:58;;;;;;;18.60;16.88;;;;;;;22.82;92.05;101308.13;5230521;28;20083;-69
2021/06/28 11:01:41;;;;;;;21.10;19.20;;;;;;;22.89;92.15;101312.69;5231366;28;20029;-69
2021/06/28 11:04:36;;;;;;;22.25;20.15;;;;;;;22.93;92.17;101313.97;5231482;28;20025;-69
2021/06/28 11:07:11;;;;;;;19.83;17.92;;;;;;;22.81;93.35;101311.00;5221936;28;20037;-67
2021/06/28 11:09:43;;;;;;;20.65;18.65;;;;;;;22.78;94.30;101312.22;5231807;28;20017;-69
2021/06/28 11:12:18;;;;;;;;;;;;;;;23.12;91.76;101312.38;5231285;28;20516;-69
2021/06/28 11:14:58;;;;;;;21.05;19.08;;;;;;;22.76;96.11;101305.41;5230576;28;19994;-68
2021/06/28 11:17:45;;;;;;;21.80;19.67;;;;;;;22.80;96.29;101306.66;5231116;28;20107;-69
2021/06/28 11:20:18;;;;;;;20.85;18.85;;;;;;;22.68;95.73;101310.94;5232060;28;20325;-69
2021/06/28 11:22:55;;;;;;;21.02;19.08;;;;;;;22.75;95.85;101304.59;5230011;28;20048;-68
2021/06/28 11:25:35;;;;;;;18.63;16.88;;;;;;;22.67;94.30;101298.63;5230650;28;20371;-68
2021/06/28 11:28:31;;;;;;;18.38;16.67;;;;;;;22.72;93.52;101296.97;5232726;28;20386;-69
2021/06/28 11:31:16;;;;;;;18.23;16.48;;;;;;;22.65;93.27;101282.78;5231100;28;20022;-67
2021/06/28 11:33:50;;;;;;;17.20;15.40;;;;;;;22.55;93.01;101279.66;5226426;28;20471;-68
2021/06/28 11:36:31;;;;;;;17.23;15.52;;;;;;;22.60;94.11;101287.91;5230312;28;20037;-69